Main page
METAR-TAF:

METAR-TAF

Airports :

Orlando Executive Airport

Orlando, Florida, United States

latitude: 28-32-47N, longitude: 081-20-09W, elevation: 112 ft

Current weather observation

The report was made 22 minutes ago, at 12:03 UTC
Wind 6 mph from the South
Temperature 77°F
Humidity 89%
Pressure 30.06 in. Hg
Visibility: 7 miles
Overcast at a height of 400 ft

METAR: KORL 281203Z 19005KT 7SM OVC004 25/23 A3006 RMK AO2 T02500233

Time: 08:25 (12:25 UTC)


TAF: missing

Weather observations and forecasts of more than 4000 airports (METAR and TAF reports).

The available stations are represented by yellow and red dots on the map.

Hover mouse over dot to see the name of the station.

Then click to see weather observations and forecasts.

To change the map : click on the green buttons with a black cross to zoom in, on the green button with a dash to zoom out, or on the green arrows for adjacent maps.


METAR-TAF: